Time;durP1;ratioP1;P1;durP2;ratioP2;P2;SDS_P1;SDS_P2;PMS_P1;PMS_P2;Temp;Humidity;BMP_temperature;BMP_pressure;BME280_temperature;BME280_humidity;BME280_pressure;Samples;Min_cycle;Max_cycle;Signal;HPM_P1;HPM_P2
2023/08/11 00:00:23;;;;;;;;;12.00;10.00;;;;;25.72;100.00;101605.44;5103332;27;46562;-78
2023/08/11 00:02:52;;;;;;;;;10.67;9.33;;;;;25.68;100.00;101596.59;5097406;27;45351;-78
2023/08/11 00:05:18;;;;;;;;;7.33;7.33;;;;;25.66;100.00;101594.88;5094140;27;45489;-78
2023/08/11 00:07:45;;;;;;;;;11.67;11.00;;;;;25.59;100.00;101599.66;5097329;27;45157;-77
2023/08/11 00:10:12;;;;;;;;;10.00;8.00;;;;;25.53;100.00;101595.34;5096877;27;46552;-78
2023/08/11 00:12:37;;;;;;;;;11.33;11.33;;;;;25.49;100.00;101592.84;5096581;27;45315;-78
2023/08/11 00:15:03;;;;;;;;;9.67;9.67;;;;;25.47;100.00;101592.03;5096952;27;45627;-78
2023/08/11 00:17:29;;;;;;;;;10.33;10.00;;;;;25.48;100.00;101593.78;5105695;27;45567;-78
2023/08/11 00:19:54;;;;;;;;;11.00;8.00;;;;;25.49;100.00;101595.53;5100716;27;61145;-77
2023/08/11 00:22:19;;;;;;;;;10.00;9.00;;;;;25.43;100.00;101596.66;5099633;27;51518;-77
2023/08/11 00:24:45;;;;;;;;;8.33;8.33;;;;;25.46;100.00;101595.63;5100178;27;45444;-78
2023/08/11 00:27:10;;;;;;;;;9.33;9.33;;;;;25.44;100.00;101593.00;5097747;27;45524;-77
2023/08/11 00:29:35;;;;;;;;;11.00;7.67;;;;;25.45;100.00;101607.41;5099906;27;45664;-78
2023/08/11 00:32:01;;;;;;;;;9.33;9.33;;;;;25.44;100.00;101601.13;5105034;27;45466;-77
2023/08/11 00:34:26;;;;;;;;;10.33;9.33;;;;;25.41;100.00;101606.66;5095038;27;46068;-78
2023/08/11 00:36:51;;;;;;;;;9.00;8.33;;;;;25.37;100.00;101596.91;5095429;27;53894;-77
2023/08/11 00:39:17;;;;;;;;;9.67;8.33;;;;;25.35;100.00;101598.75;5094901;27;46295;-78
2023/08/11 00:41:42;;;;;;;;;12.33;10.00;;;;;25.32;100.00;101597.06;5095488;27;65673;-77
2023/08/11 00:44:07;;;;;;;;;10.00;10.00;;;;;25.31;100.00;101589.03;5096101;27;49388;-78
2023/08/11 00:46:33;;;;;;;;;10.00;8.33;;;;;25.30;100.00;101592.63;5094736;27;54221;-77
2023/08/11 00:48:59;;;;;;;;;10.00;10.00;;;;;25.27;100.00;101582.84;5095041;27;47357;-78
2023/08/11 00:51:25;;;;;;;;;9.00;9.00;;;;;25.21;100.00;101585.78;5075774;27;51895;-77
2023/08/11 00:53:51;;;;;;;;;12.33;11.33;;;;;25.18;100.00;101580.47;5094765;27;45469;-78
2023/08/11 00:56:19;;;;;;;;;10.33;9.67;;;;;25.16;100.00;101581.50;5095394;27;45532;-78
2023/08/11 00:58:45;;;;;;;;;12.67;11.00;;;;;25.14;100.00;101583.34;5095147;27;46758;-78
2023/08/11 01:01:11;;;;;;;;;9.33;9.33;;;;;25.05;100.00;101573.75;5097291;27;45426;-78
2023/08/11 01:03:36;;;;;;;;;8.67;8.67;;;;;25.10;100.00;101588.00;5093758;27;45583;-77
2023/08/11 01:06:28;;;;;;;;;12.00;11.00;;;;;25.11;100.00;101589.78;5097614;27;45464;-78
2023/08/11 01:09:08;;;;;;;;;8.67;8.67;;;;;25.12;100.00;101587.94;5093910;27;47696;-78
2023/08/11 01:11:38;;;;;;;;;11.00;9.00;;;;;25.10;100.00;101592.53;5094806;27;45149;-77
2023/08/11 01:14:15;;;;;;;;;15.67;10.67;;;;;25.06;100.00;101591.75;5100069;27;45357;-78
2023/08/11 01:16:41;;;;;;;;;10.00;10.00;;;;;25.06;100.00;101589.06;5064892;27;1164887;-78
2023/08/11 01:19:08;;;;;;;;;12.67;9.67;;;;;25.04;100.00;101596.31;5101310;27;45255;-78
2023/08/11 01:21:35;;;;;;;;;10.00;10.00;;;;;25.03;100.00;101597.22;5085249;27;52409;-78
2023/08/11 01:24:01;;;;;;;;;10.33;10.33;;;;;25.00;100.00;101606.34;5089501;27;45410;-78
2023/08/11 01:26:27;;;;;;;;;11.33;10.00;;;;;24.98;100.00;101602.84;5103997;27;45386;-77
2023/08/11 01:28:53;;;;;;;;;11.33;11.33;;;;;25.00;100.00;101608.19;5081111;27;51552;-77
2023/08/11 01:31:19;;;;;;;;;11.00;10.00;;;;;25.00;100.00;101609.06;5100893;27;45423;-78
2023/08/11 01:33:45;;;;;;;;;9.67;9.67;;;;;24.94;100.00;101614.69;5102467;27;45464;-78
2023/08/11 01:36:10;;;;;;;;;11.00;11.00;;;;;24.95;100.00;101604.75;5106688;27;45383;-78
2023/08/11 01:38:35;;;;;;;;;9.67;9.00;;;;;24.95;100.00;101608.34;5099185;27;55190;-78
2023/08/11 01:41:01;;;;;;;;;10.00;9.00;;;;;24.94;100.00;101614.69;5099284;27;45512;-78
2023/08/11 01:43:28;;;;;;;;;10.00;10.00;;;;;24.90;100.00;101613.03;5099679;27;48312;-77
2023/08/11 01:45:54;;;;;;;;;9.00;9.00;;;;;24.88;100.00;101617.63;5090083;27;45580;-77
2023/08/11 01:48:20;;;;;;;;;11.00;10.00;;;;;24.89;100.00;101613.97;5099742;27;45429;-78
2023/08/11 01:50:46;;;;;;;;;10.67;10.67;;;;;24.87;100.00;101621.22;5099316;27;52072;-77
2023/08/11 01:53:12;;;;;;;;;9.33;9.33;;;;;24.82;100.00;101616.00;5098884;27;45387;-78
2023/08/11 01:55:38;;;;;;;;;10.00;10.00;;;;;24.83;100.00;101622.31;5103888;27;45348;-77
2023/08/11 01:58:03;;;;;;;;;11.33;10.00;;;;;24.81;100.00;101629.56;5098026;27;68052;-77
2023/08/11 02:00:30;;;;;;;;;9.00;9.00;;;;;24.81;100.00;101625.03;5098932;27;45431;-77
2023/08/11 02:02:57;;;;;;;;;10.33;10.33;;;;;24.78;100.00;101627.88;5081659;27;45347;-78
2023/08/11 02:05:24;;;;;;;;;10.67;10.33;;;;;24.77;100.00;101607.19;5095842;27;45443;-78
2023/08/11 02:07:51;;;;;;;;;12.67;11.33;;;;;24.76;100.00;101609.94;5098493;27;47562;-78
2023/08/11 02:10:16;;;;;;;;;10.33;10.33;;;;;24.74;100.00;101619.91;5093586;27;45347;-78
2023/08/11 02:12:42;;;;;;;;;13.33;11.33;;;;;24.71;100.00;101620.00;5097513;27;45422;-78
2023/08/11 02:15:08;;;;;;;;;11.33;11.33;;;;;24.70;100.00;101610.16;5108735;27;45496;-78
2023/08/11 02:17:34;;;;;;;;;13.33;12.00;;;;;24.70;100.00;101612.84;5210480;22;45586;-77
2023/08/11 02:20:08;;;;;;;;;10.67;10.67;;;;;24.63;100.00;101603.22;5109451;27;45353;-78
2023/08/11 02:22:33;;;;;;;;;12.00;12.00;;;;;24.62;100.00;101617.66;5099169;27;45302;-77
2023/08/11 02:24:58;;;;;;;;;16.33;11.00;;;;;24.61;100.00;101605.06;5094836;27;56130;-78
2023/08/11 02:27:24;;;;;;;;;11.00;10.00;;;;;24.61;100.00;101618.56;5097360;27;55101;-78
2023/08/11 02:29:49;;;;;;;;;13.33;11.00;;;;;24.62;100.00;101617.66;5105210;27;47396;-78
2023/08/11 02:32:14;;;;;;;;;16.00;12.00;;;;;24.56;100.00;101608.84;5105939;27;45574;-78
2023/08/11 02:34:41;;;;;;;;;11.33;10.00;;;;;24.56;100.00;101605.25;5097593;27;45523;-78
2023/08/11 02:37:06;;;;;;;;;9.67;9.67;;;;;24.55;100.00;101609.78;5098424;27;46744;-77
2023/08/11 02:39:32;;;;;;;;;12.33;11.67;;;;;24.51;100.00;101599.13;5098501;27;45478;-78
2023/08/11 02:41:58;;;;;;;;;10.00;10.00;;;;;24.55;100.00;101612.47;5099175;27;45467;-77
2023/08/11 02:44:23;;;;;;;;;12.00;10.67;;;;;24.53;100.00;101613.44;5098851;27;45604;-77
2023/08/11 02:46:48;;;;;;;;;12.00;10.00;;;;;24.53;100.00;101616.16;5097745;27;47962;-77
2023/08/11 02:49:14;;;;;;;;;11.67;11.67;;;;;24.50;100.00;101613.53;5097942;27;61620;-78
2023/08/11 02:51:39;;;;;;;;;10.67;10.00;;;;;24.52;100.00;101617.97;5097909;27;47043;-78
2023/08/11 02:54:05;;;;;;;;;11.33;11.33;;;;;24.50;100.00;101617.16;5099199;27;45529;-78
2023/08/11 02:56:30;;;;;;;;;10.00;10.00;;;;;24.42;100.00;101613.81;5098000;27;59290;-78
2023/08/11 02:58:56;;;;;;;;;12.67;12.00;;;;;24.43;100.00;101610.19;5098453;27;45528;-77
2023/08/11 03:01:23;;;;;;;;;15.33;11.67;;;;;24.43;100.00;101612.00;5098609;27;45211;-78
2023/08/11 03:03:48;;;;;;;;;14.67;12.00;;;;;24.46;100.00;101614.59;5096761;27;45638;-77
2023/08/11 03:06:14;;;;;;;;;15.00;12.00;;;;;24.43;100.00;101609.28;5094207;27;62463;-77
2023/08/11 03:08:40;;;;;;;;;13.33;11.00;;;;;24.45;100.00;101616.44;5098130;27;60501;-78
2023/08/11 03:11:05;;;;;;;;;11.67;10.67;;;;;24.40;100.00;101629.19;5099421;27;45658;-78
2023/08/11 03:13:31;;;;;;;;;10.67;10.00;;;;;24.39;100.00;101627.41;5097841;27;45322;-78
2023/08/11 03:15:59;;;;;;;;;11.33;10.00;;;;;24.35;100.00;101627.56;5097965;27;47505;-78
2023/08/11 03:18:24;;;;;;;;;11.67;11.67;;;;;24.34;100.00;101629.34;5094393;27;45508;-78
2023/08/11 03:20:52;;;;;;;;;10.33;10.33;;;;;24.31;100.00;101630.34;5097734;27;45314;-78
2023/08/11 03:23:18;;;;;;;;;12.00;12.00;;;;;24.31;100.00;101629.47;5094377;27;45353;-78
2023/08/11 03:25:43;;;;;;;;;13.67;9.00;;;;;24.29;100.00;101626.81;5096817;27;47568;-77
2023/08/11 03:28:09;;;;;;;;;12.67;12.67;;;;;24.27;100.00;101625.97;5098116;27;45341;-77
2023/08/11 03:30:35;;;;;;;;;12.00;9.33;;;;;24.25;100.00;101629.66;5098195;27;45341;-78
2023/08/11 03:33:00;;;;;;;;;7.67;7.67;;;;;24.26;100.00;101629.59;5090936;27;47541;-78
2023/08/11 03:35:25;;;;;;;;;9.67;9.67;;;;;24.25;100.00;101624.28;5092979;27;47341;-78
2023/08/11 03:37:51;;;;;;;;;11.00;10.33;;;;;24.24;100.00;101623.41;5097127;27;45558;-78
2023/08/11 03:40:16;;;;;;;;;12.67;10.67;;;;;24.22;100.00;101621.66;5097757;27;45445;-78
2023/08/11 03:42:42;;;;;;;;;10.00;10.00;;;;;24.34;100.00;101618.53;5098006;27;45463;-77
2023/08/11 03:45:11;;;;;;;;;10.33;9.00;;;;;24.20;100.00;101610.94;5097494;27;47419;-78
2023/08/11 03:47:37;;;;;;;;;12.33;11.00;;;;;24.18;100.00;101606.50;5097225;27;45403;-77
2023/08/11 03:50:03;;;;;;;;;14.00;13.00;;;;;24.14;100.00;101611.13;5093737;27;45703;-78
2023/08/11 03:52:28;;;;;;;;;11.00;11.00;;;;;24.20;100.00;101605.53;5073029;27;45660;-78
2023/08/11 03:54:53;;;;;;;;;12.33;10.67;;;;;24.19;100.00;101611.88;5096100;27;54888;-78
2023/08/11 03:57:19;;;;;;;;;11.33;11.00;;;;;24.16;100.00;101611.06;5097320;27;49056;-78
2023/08/11 03:59:44;;;;;;;;;12.00;10.67;;;;;24.14;100.00;101604.84;5097812;27;45834;-78
2023/08/11 04:02:09;;;;;;;;;12.67;11.00;;;;;24.14;100.00;101605.75;5096716;27;53107;-78
2023/08/11 04:04:35;;;;;;;;;13.33;11.33;;;;;24.11;100.00;101605.81;5092588;27;54736;-78
2023/08/11 04:07:00;;;;;;;;;13.00;11.00;;;;;24.10;100.00;101604.06;5095552;27;60652;-78
2023/08/11 04:09:25;;;;;;;;;9.67;9.67;;;;;24.08;100.00;101605.06;5097078;27;54668;-78
2023/08/11 04:11:51;;;;;;;;;9.67;9.67;;;;;24.06;100.00;101610.50;5096791;27;45435;-78
2023/08/11 04:14:16;;;;;;;;;14.67;13.67;;;;;24.06;100.00;101605.09;5096755;27;46621;-78
2023/08/11 04:16:43;;;;;;;;;11.67;10.00;;;;;23.98;100.00;101609.88;5096154;27;45550;-77
2023/08/11 04:19:09;;;;;;;;;9.00;9.00;;;;;23.98;100.00;101610.75;5094335;27;45382;-78
2023/08/11 04:21:35;;;;;;;;;11.67;11.00;;;;;23.96;100.00;101599.09;5088514;27;45484;-78
2023/08/11 04:24:02;;;;;;;;;11.33;9.33;;;;;23.98;100.00;101597.25;5091496;27;47355;-78
2023/08/11 04:26:27;;;;;;;;;12.67;9.33;;;;;23.94;100.00;101597.41;5104510;27;45425;-78
2023/08/11 04:28:53;;;;;;;;;14.33;11.33;;;;;23.93;100.00;101604.63;5097466;27;46220;-78
2023/08/11 04:31:18;;;;;;;;;11.33;9.00;;;;;23.91;100.00;101609.16;5096834;27;45433;-78
2023/08/11 04:33:43;;;;;;;;;10.67;9.33;;;;;23.87;100.00;101607.53;5096423;27;45946;-78
2023/08/11 04:36:09;;;;;;;;;11.67;8.00;;;;;23.88;100.00;101608.41;5095720;27;45382;-77
2023/08/11 04:38:34;;;;;;;;;12.67;8.00;;;;;23.85;100.00;101606.66;5097067;27;46794;-78
2023/08/11 04:41:00;;;;;;;;;11.67;9.33;;;;;23.85;100.00;101608.47;5096253;27;45348;-78
2023/08/11 04:43:26;;;;;;;;;11.67;10.00;;;;;23.87;100.00;101615.59;5097008;27;50561;-78
2023/08/11 04:45:51;;;;;;;;;9.00;9.00;;;;;23.86;100.00;101600.34;5096449;27;45323;-78
2023/08/11 04:48:16;;;;;;;;;13.33;10.67;;;;;23.83;100.00;101597.75;5095908;27;47924;-78
2023/08/11 04:50:42;;;;;;;;;8.00;8.00;;;;;23.86;100.00;101604.84;5095585;27;61648;-78
2023/08/11 04:53:08;;;;;;;;;8.00;8.00;;;;;23.85;100.00;101605.78;5095468;27;63775;-78
2023/08/11 04:55:34;;;;;;;;;8.00;8.00;;;;;23.86;100.00;101605.72;5097128;27;45334;-78
2023/08/11 04:58:00;;;;;;;;;8.33;7.00;;;;;23.86;100.00;101605.72;5095587;27;45429;-78
2023/08/11 05:00:26;;;;;;;;;8.00;8.00;;;;;23.85;100.00;101601.28;5088826;27;45363;-78
2023/08/11 05:02:52;;;;;;;;;10.33;9.00;;;;;23.86;100.00;101608.44;5096469;27;46500;-78
2023/08/11 05:05:19;;;;;;;;;7.67;7.67;;;;;23.90;100.00;101596.63;5092667;27;45414;-78
2023/08/11 05:07:45;;;;;;;;;10.00;10.00;;;;;23.89;100.00;101605.66;5096906;27;45337;-77
2023/08/11 05:10:11;;;;;;;;;8.00;8.00;;;;;23.84;100.00;101604.03;5096472;27;45445;-78
2023/08/11 05:12:36;;;;;;;;;9.33;8.00;;;;;23.85;100.00;101606.66;5078179;27;46764;-78
2023/08/11 05:15:03;;;;;;;;;9.33;8.33;;;;;23.87;100.00;101618.31;5095728;27;45418;-78
2023/08/11 05:17:29;;;;;;;;;9.67;9.67;;;;;23.85;100.00;101603.97;5095920;27;45421;-78
2023/08/11 05:19:55;;;;;;;;;10.67;7.00;;;;;23.87;100.00;101618.31;5096069;27;45573;-77
2023/08/11 05:22:20;;;;;;;;;8.00;8.00;;;;;23.89;100.00;101615.56;5096000;27;46297;-78
2023/08/11 05:24:46;;;;;;;;;9.00;9.00;;;;;23.90;100.00;101611.91;5092808;27;45437;-78
2023/08/11 05:27:11;;;;;;;;;10.00;8.33;;;;;23.87;100.00;101610.22;5096306;27;45457;-78
2023/08/11 05:29:36;;;;;;;;;8.00;8.00;;;;;23.87;100.00;101606.63;5095595;27;45453;-78
2023/08/11 05:32:02;;;;;;;;;8.33;8.33;;;;;23.86;100.00;101613.81;5096046;27;65590;-78
2023/08/11 05:34:28;;;;;;;;;9.33;9.33;;;;;23.89;100.00;101602.94;5095531;27;45226;-78
2023/08/11 05:36:53;;;;;;;;;7.33;6.33;;;;;23.89;100.00;101608.34;5095467;27;55609;-78
2023/08/11 05:39:19;;;;;;;;;11.00;9.00;;;;;23.93;100.00;101617.22;5095842;27;45473;-78
2023/08/11 05:41:44;;;;;;;;;7.33;7.33;;;;;23.95;100.00;101613.53;5095598;27;48066;-78
2023/08/11 05:44:09;;;;;;;;;10.67;10.67;;;;;23.96;100.00;101615.28;5095525;27;65972;-78
2023/08/11 05:46:35;;;;;;;;;13.67;9.67;;;;;23.96;100.00;101615.28;5094988;27;55915;-77
2023/08/11 05:49:00;;;;;;;;;8.67;7.67;;;;;24.01;100.00;101626.81;5095800;27;45433;-78
2023/08/11 05:51:25;;;;;;;;;9.67;9.67;;;;;24.07;100.00;101632.94;5076940;27;65820;-78
2023/08/11 05:53:51;;;;;;;;;10.00;8.00;;;;;24.08;100.00;101638.31;5097075;27;54334;-78
2023/08/11 05:56:16;;;;;;;;;8.67;7.67;;;;;24.13;100.00;101635.44;5095543;27;45344;-78
2023/08/11 05:58:42;;;;;;;;;9.67;8.00;;;;;24.14;100.00;101638.13;5098239;27;60109;-78
2023/08/11 06:01:08;;;;;;;;;8.00;8.00;;;;;24.19;100.00;101635.28;5087795;27;45780;-78
2023/08/11 06:03:33;;;;;;;;;8.00;8.00;;;;;24.21;100.00;101636.97;5084337;27;45643;-75
2023/08/11 06:06:00;;;;;;;;;7.00;7.00;;;;;24.24;100.00;101622.50;5091811;27;45949;-77
2023/08/11 06:08:26;;;;;;;;;9.33;8.00;;;;;24.33;100.00;101645.59;5098348;27;45731;-77
2023/08/11 06:10:51;;;;;;;;;8.00;6.33;;;;;24.35;100.00;101643.75;5098226;27;47625;-77
2023/08/11 06:13:17;;;;;;;;;9.00;7.33;;;;;24.43;100.00;101634.47;5098023;27;45414;-78
2023/08/11 06:15:42;;;;;;;;;7.00;7.00;;;;;24.51;100.00;101628.81;5100611;27;57209;-78
2023/08/11 06:18:07;;;;;;;;;5.00;5.00;;;;;24.60;100.00;101627.59;5100532;27;45452;-78
2023/08/11 06:20:33;;;;;;;;;7.33;6.00;;;;;24.63;100.00;101630.22;5077243;27;60845;-78
2023/08/11 06:22:59;;;;;;;;;8.33;5.33;;;;;24.71;100.00;101636.22;5097949;27;45470;-77
2023/08/11 06:25:24;;;;;;;;;6.00;6.00;;;;;24.76;100.00;101631.53;5099057;27;45465;-77
2023/08/11 06:27:50;;;;;;;;;5.00;5.00;;;;;24.77;100.00;101642.31;5086558;27;45462;-76
2023/08/11 06:30:15;;;;;;;;;7.00;7.00;;;;;24.76;100.00;101647.75;5092613;27;45430;-74
2023/08/11 06:32:43;;;;;;;;;8.67;6.00;;;;;24.77;100.00;101644.13;5088323;27;45562;-75
2023/08/11 06:35:08;;;;;;;;;8.00;5.00;;;;;24.77;100.00;101655.81;5090828;27;45493;-75
2023/08/11 06:37:34;;;;;;;;;6.00;5.00;;;;;24.77;100.00;101650.41;5096517;27;52817;-74
2023/08/11 06:40:16;;;;;;;;;7.00;6.00;;;;;24.79;100.00;101661.16;5098022;27;45553;-75
2023/08/11 06:42:41;;;;;;;;;6.00;6.00;;;;;24.80;100.00;101646.72;5077448;28;45496;-76
2023/08/11 06:45:07;;;;;;;;;8.00;6.33;;;;;24.78;100.00;101662.97;5076736;28;64546;-74
2023/08/11 06:47:34;;;;;;;;;6.00;6.00;;;;;24.87;100.00;101663.56;5078025;27;45291;-74
2023/08/11 06:49:59;;;;;;;;;6.00;4.00;;;;;24.98;100.00;101664.06;5077390;28;47393;-75
2023/08/11 06:52:25;;;;;;;;;8.00;7.00;;;;;25.05;100.00;101668.34;5076110;28;69537;-75
2023/08/11 06:54:51;;;;;;;;;7.33;5.33;;;;;25.15;100.00;101668.94;5077057;28;45312;-75
2023/08/11 06:57:18;;;;;;;;;7.00;6.00;;;;;25.22;100.00;101675.88;5077387;28;62399;-75
2023/08/11 06:59:43;;;;;;;;;6.00;6.00;;;;;25.22;100.00;101676.75;5076360;28;47306;-74
2023/08/11 07:02:09;;;;;;;;;7.67;6.00;;;;;25.19;100.00;101678.66;5076234;27;68467;-74
2023/08/11 07:04:34;;;;;;;;;9.33;7.67;;;;;25.16;100.00;101676.09;5069210;27;63114;-74
2023/08/11 07:06:59;;;;;;;;;8.33;6.33;;;;;25.12;100.00;101677.13;5069705;28;51254;-75
2023/08/11 07:09:25;;;;;;;;;7.00;7.00;;;;;25.04;100.00;101680.97;5076378;28;47350;-74
2023/08/11 07:11:50;;;;;;;;;5.67;5.67;;;;;25.04;100.00;101691.78;5081489;27;67846;-74
2023/08/11 07:14:15;;;;;;;;;5.67;5.67;;;;;25.01;100.00;101689.19;5083963;27;63084;-74
2023/08/11 07:16:41;;;;;;;;;6.00;6.00;;;;;25.07;100.00;101697.09;5055279;28;45522;-75
2023/08/11 07:19:06;;;;;;;;;7.00;6.00;;;;;25.08;100.00;101685.34;5066590;28;45747;-74
2023/08/11 07:21:31;;;;;;;;;6.00;6.00;;;;;25.11;100.00;101697.00;5073728;28;45437;-74
2023/08/11 07:23:57;;;;;;;;;6.33;6.33;;;;;25.15;100.00;101695.97;5068661;28;45557;-74
2023/08/11 07:26:22;;;;;;;;;6.33;6.33;;;;;25.16;100.00;101703.13;5076515;28;45498;-75
2023/08/11 07:28:47;;;;;;;;;6.00;6.00;;;;;25.20;100.00;101715.59;5069123;27;67932;-75
2023/08/11 07:31:13;;;;;;;;;8.00;8.00;;;;;25.25;100.00;101719.03;5075377;28;45471;-74
2023/08/11 07:33:39;;;;;;;;;8.00;7.33;;;;;25.23;100.00;101713.66;5075704;28;62521;-75
2023/08/11 07:36:05;;;;;;;;;8.00;8.00;;;;;25.29;100.00;101712.53;5082636;27;45346;-74
2023/08/11 07:38:31;;;;;;;;;10.00;8.00;;;;;25.33;100.00;101712.38;5076638;28;46149;-75
2023/08/11 07:40:56;;;;;;;;;12.00;8.00;;;;;25.39;100.00;101723.91;5074757;28;61720;-74
2023/08/11 07:43:21;;;;;;;;;9.00;9.00;;;;;25.38;100.00;101716.75;5076818;27;45541;-75
2023/08/11 07:45:46;;;;;;;;;6.33;6.33;;;;;25.43;100.00;101721.03;5074751;28;60916;-75
2023/08/11 07:48:12;;;;;;;;;9.00;8.00;;;;;25.48;100.00;101718.16;5076310;28;46564;-75
2023/08/11 07:50:37;;;;;;;;;9.00;9.00;;;;;25.52;100.00;101722.53;5075890;28;63793;-76
2023/08/11 07:53:03;;;;;;;;;9.33;8.00;;;;;25.55;100.00;101726.00;5075748;28;54210;-74
2023/08/11 07:55:28;;;;;;;;;9.67;8.00;;;;;25.59;100.00;101726.75;5055935;28;45390;-74
2023/08/11 07:57:54;;;;;;;;;9.00;7.67;;;;;25.60;100.00;101731.22;5070846;28;46555;-75
2023/08/11 08:00:24;;;;;;;;;9.67;9.33;;;;;25.77;100.00;101738.75;5054613;28;46577;-75
2023/08/11 08:02:50;;;;;;;;;9.33;8.67;;;;;25.84;100.00;101734.88;5071640;28;45983;-74
2023/08/11 08:05:15;;;;;;;;;9.67;9.00;;;;;25.90;100.00;101731.94;5078876;27;45445;-74
2023/08/11 08:07:40;;;;;;;;;10.00;8.67;;;;;25.92;100.00;101738.16;5078178;27;63355;-73
2023/08/11 08:10:08;;;;;;;;;8.67;8.33;;;;;25.89;100.00;101730.19;5069831;27;51769;-75
2023/08/11 08:12:35;;;;;;;;;9.67;8.33;;;;;25.91;100.00;101732.81;5066906;28;45487;-74
2023/08/11 08:15:01;;;;;;;;;11.00;8.00;;;;;25.94;100.00;101736.28;5071204;28;45625;-75
2023/08/11 08:17:27;;;;;;;;;10.33;9.33;;;;;25.97;100.00;101729.88;5079092;27;47392;-75
2023/08/11 08:19:52;;;;;;;;;10.33;7.67;;;;;25.96;100.00;101737.09;5075157;28;70164;-76
2023/08/11 08:22:18;;;;;;;;;11.33;11.33;;;;;25.98;100.00;101729.78;5071500;27;45362;-75
2023/08/11 08:24:43;;;;;;;;;8.00;8.00;;;;;26.03;100.00;101735.03;5074417;28;45426;-75
2023/08/11 08:27:09;;;;;;;;;14.00;11.00;;;;;26.04;100.00;101723.25;5071614;28;69312;-75
2023/08/11 08:29:34;;;;;;;;;11.00;11.00;;;;;26.07;100.00;101726.75;5070797;28;45462;-75
2023/08/11 08:31:59;;;;;;;;;19.67;16.67;;;;;26.12;100.00;101732.84;5072965;28;64270;-75
2023/08/11 08:34:25;;;;;;;;;13.67;12.33;;;;;26.12;100.00;101724.72;5075082;28;60050;-76
2023/08/11 08:36:50;;;;;;;;;10.67;10.00;;;;;26.22;100.00;101733.38;5074948;28;67707;-76
2023/08/11 08:39:18;;;;;;;;;10.00;9.33;;;;;26.21;100.00;101728.03;5075399;28;52776;-74
2023/08/11 08:41:44;;;;;;;;;11.33;10.33;;;;;26.18;100.00;101728.13;5056008;28;45536;-76
2023/08/11 08:44:10;;;;;;;;;14.00;14.00;;;;;26.24;100.00;101725.19;5054595;28;45482;-76
2023/08/11 08:46:37;;;;;;;;;12.67;12.67;;;;;26.28;100.00;101718.72;5057845;28;47149;-76
2023/08/11 08:49:17;;;;;;;;;12.00;10.00;;;;;26.30;100.00;101723.09;5074718;28;45383;-75
2023/08/11 08:51:44;;;;;;;;;10.00;9.00;;;;;26.37;100.00;101723.75;5069060;28;45394;-75
2023/08/11 08:54:09;;;;;;;;;9.67;9.67;;;;;26.39;100.00;101719.16;5074675;28;61789;-75
2023/08/11 08:56:37;;;;;;;;;11.00;11.00;;;;;26.46;100.00;101730.63;5074986;28;47538;-75
2023/08/11 08:59:02;;;;;;;;;9.33;9.00;;;;;26.53;100.00;101732.16;5075574;27;45516;-75
2023/08/11 09:01:28;;;;;;;;;8.00;7.67;;;;;26.49;100.00;101725.13;5072236;28;45497;-76
2023/08/11 09:03:54;;;;;;;;;9.67;9.67;;;;;26.53;100.00;101727.63;5054810;28;45493;-76
2023/08/11 09:06:20;;;;;;;;;13.67;9.67;;;;;26.64;100.00;101732.59;5056357;28;47326;-74
2023/08/11 09:08:46;;;;;;;;;10.00;10.00;;;;;26.72;100.00;101725.03;5057137;28;45504;-75
2023/08/11 09:11:11;;;;;;;;;13.67;9.67;;;;;26.72;100.00;101716.00;5074915;28;61049;-75
2023/08/11 09:13:37;;;;;;;;;11.00;9.67;;;;;26.79;100.00;101715.72;5074441;28;61006;-75
2023/08/11 09:16:03;;;;;;;;;9.33;8.00;;;;;26.84;100.00;101715.47;5071501;28;46740;-75
2023/08/11 09:18:29;;;;;;;;;9.00;9.00;;;;;26.86;100.00;101725.31;5074482;28;45300;-74
2023/08/11 09:20:54;;;;;;;;;11.33;10.00;;;;;26.92;100.00;101724.19;5075374;28;45514;-75
2023/08/11 09:23:19;;;;;;;;;8.00;8.00;;;;;26.96;100.00;101719.53;5071589;28;63529;-75
2023/08/11 09:25:49;;;;;;;;;9.00;9.00;;;;;26.96;100.00;101736.66;5074966;27;46361;-74
2023/08/11 09:28:14;;;;;;;;;8.67;8.67;;;;;26.95;100.00;101742.13;5074754;28;45498;-74
2023/08/11 09:30:41;;;;;;;;;12.33;11.00;;;;;26.89;100.00;101740.56;5056225;28;45524;-75
2023/08/11 09:33:09;;;;;;;;;8.67;8.00;;;;;26.87;100.00;101751.47;5076854;28;45326;-75
2023/08/11 09:35:35;;;;;;;;;6.33;5.33;;;;;26.86;100.00;101752.44;5058699;28;46549;-75
2023/08/11 09:38:00;;;;;;;;;8.33;8.33;;;;;26.93;100.00;101754.88;5057755;28;45657;-76
2023/08/11 09:40:26;;;;;;;;;8.00;8.00;;;;;26.97;100.00;101748.38;5078331;28;45908;-75
2023/08/11 09:42:56;;;;;;;;;10.00;9.33;;;;;27.09;100.00;101745.16;5076354;27;45481;-74
2023/08/11 09:45:22;;;;;;;;;8.00;8.00;;;;;27.10;100.00;101761.34;5077416;28;47621;-75
2023/08/11 09:47:48;;;;;;;;;9.33;8.00;;;;;27.12;100.00;101756.78;5075255;27;45332;-75
2023/08/11 09:50:14;;;;;;;;;10.00;8.33;;;;;27.15;100.00;101759.31;5077803;28;66274;-74
2023/08/11 09:52:40;;;;;;;;;9.00;8.00;;;;;27.22;100.00;101756.34;5078315;28;45501;-74
2023/08/11 09:55:09;;;;;;;;;9.33;6.67;;;;;27.32;100.00;101763.13;5078460;27;47354;-75
2023/08/11 09:57:36;;;;;;;;;8.00;8.00;;;;;27.40;100.00;101752.84;5081551;27;45300;-75
2023/08/11 10:00:03;;;;;;;;;7.00;7.00;;;;;27.44;100.00;101761.72;5077464;28;46461;-74
2023/08/11 10:02:30;;;;;;;;;6.33;6.33;;;;;27.55;100.00;101751.28;5078444;28;46489;-75
2023/08/11 10:04:57;;;;;;;;;9.00;5.67;;;;;27.67;100.00;101759.72;5077261;27;47465;-76
2023/08/11 10:07:28;;;;;;;;;5.67;5.00;;;;;27.70;100.00;101761.47;5078726;28;46621;-74
2023/08/11 10:09:53;;;;;;;;;6.00;6.00;;;;;27.74;100.00;101763.06;5058361;28;45414;-75
2023/08/11 10:12:19;;;;;;;;;10.33;6.33;;;;;27.69;100.00;101762.34;5075318;27;63237;-73
2023/08/11 10:14:44;;;;;;;;;7.00;7.00;;;;;27.66;100.00;101747.13;5076733;28;70709;-74
2023/08/11 10:17:11;;;;;;;;;6.67;6.67;;;;;27.61;100.00;101746.44;5082428;27;45879;-74
2023/08/11 10:19:36;;;;;;;;;6.67;6.00;;;;;27.61;100.00;101742.84;5064476;28;66907;-74
2023/08/11 10:22:02;;;;;;;;;10.67;7.00;;;;;27.58;100.00;101742.97;5059081;28;62392;-74
2023/08/11 10:24:27;;;;;;;;;7.33;5.67;;;;;27.57;100.00;101739.38;5057346;28;46514;-74
2023/08/11 10:26:53;;;;;;;;;7.33;5.33;;;;;27.62;100.00;101733.75;5059685;28;45511;-74
2023/08/11 10:29:20;;;;;;;;;5.67;5.00;;;;;27.67;100.00;101740.72;5075073;28;64747;-74
2023/08/11 10:31:58;;;;;;;;;7.67;7.00;;;;;27.75;100.00;101732.28;5058942;28;64687;-75
2023/08/11 10:34:24;;;;;;;;;6.67;6.67;;;;;27.82;100.00;101744.59;5077145;28;46778;-74
2023/08/11 10:36:53;;;;;;;;;7.33;7.00;;;;;27.87;100.00;101745.28;5077281;28;45493;-75
2023/08/11 10:39:21;;;;;;;;;6.00;6.00;;;;;27.99;100.00;101735.66;5075994;28;45474;-75
2023/08/11 10:41:47;;;;;;;;;8.00;8.00;;;;;28.10;100.00;101729.72;5074168;28;45454;-74
2023/08/11 10:44:17;;;;;;;;;9.33;6.00;;;;;28.29;100.00;101725.16;5077581;28;47215;-74
2023/08/11 10:46:44;;;;;;;;;8.33;5.00;;;;;28.44;100.00;101723.53;5076136;28;45492;-74
2023/08/11 10:49:09;;;;;;;;;7.33;6.33;;;;;28.69;100.00;101734.06;5056113;28;45489;-75
2023/08/11 10:51:36;;;;;;;;;9.67;7.00;;;;;28.86;100.00;101734.09;5072284;27;45828;-75
2023/08/11 10:54:09;;;;;;;;;8.00;8.00;;;;;28.97;100.00;101730.84;5068718;28;47253;-76
2023/08/11 10:56:37;;;;;;;;;7.00;5.67;;;;;29.05;100.00;101728.63;5071612;27;45527;-74
2023/08/11 10:59:19;;;;;;;;;6.33;6.33;;;;;29.06;100.00;101733.09;5068689;28;45608;-74
2023/08/11 11:01:46;;;;;;;;;10.00;8.00;;;;;29.03;100.00;101729.66;5074425;27;45512;-74
2023/08/11 11:04:12;;;;;;;;;12.33;6.00;;;;;29.01;100.00;101732.44;5070581;28;46935;-75